Mourad Didouche — 7TJC — position and weather

sailwx.info

Track history (hours):
 
Tides and Currents Weather Stations Pressure Air Temp Water Temp Dewpoint Dewpoint Depression Visibility Wind Speed Wind Dir Waves Ship Positions

Mourad Didouche

Last reported at 2017-Nov-20 00:30 UTC. Time now 2017-Nov-20 09:54 UTC.
Position N 37°16' E 025°17'.

Length 274 m; draft 10 m.

Type: Ship (hazmat cat B). MMSI: 605106030.

Date/timePositionNaut miles runAvg speedWind from/ knotsBaromVisibWave heightAir tempDewpointWater temp
2017-Nov-20 00:30N 37°16' E 025°17'714.1
2017-Nov-20 00:00N 37°17' E 025°26'714.0
2017-Nov-19 23:30N 37°19' E 025°35'714.5
2017-Nov-19 23:00N 37°23' E 025°42'713.4
2017-Nov-19 22:30N 37°30' E 025°43'714.1
2017-Nov-19 22:00N 37°37' E 025°44'713.9
2017-Nov-19 21:30N 37°44' E 025°44'9 0.2
2017-Nov-17 22:21N 37°52' E 025°39'412.5
2017-Nov-17 22:00N 37°48' E 025°39'3 5.1
2017-Nov-17 21:30N 37°47' E 025°42'2 1.1
2017-Nov-17 19:21N 37°49' E 025°43'1212.1
2017-Nov-17 18:22N 37°37' E 025°43'812.9
2017-Nov-17 17:43N 37°29' E 025°43'312.3
2017-Nov-17 17:30N 37°26' E 025°43'811.2
2017-Nov-17 16:48N 37°20' E 025°37'411.6
2017-Nov-17 16:28N 37°18' E 025°33'612.3
2017-Nov-17 16:00N 37°17' E 025°26'612.6
2017-Nov-17 15:30N 37°16' E 025°18'612.6
2017-Nov-17 15:00N 37°16' E 025°10'612.3
2017-Nov-17 14:30N 37°15' E 025°02'612.3
2017-Nov-17 14:00N 37°12' E 024°55'48813.1
2017-Nov-16 00:38N 36°18' E 014°50'214.3
2017-Nov-16 00:29N 36°19' E 014°47'814.3
2017-Nov-15 23:57N 36°21' E 014°38'714.1
2017-Nov-15 23:27N 36°23' E 014°30'714.2
2017-Nov-15 23:00N 36°25' E 014°22'714.1
2017-Nov-15 22:30N 36°27' E 014°14'714.3
2017-Nov-15 22:00N 36°29' E 014°05'1114.4
2017-Nov-15 21:14N 36°32' E 013°52'414.3
2017-Nov-15 20:58N 36°33' E 013°48'  
Track history (hours):
 
Tides and Currents Weather Stations Pressure Air Temp Water Temp Dewpoint Dewpoint Depression Visibility Wind Speed Wind Dir Waves Ship Positions

Mourad Didouche

Last reported at 2017-Nov-20 00:30 UTC. Time now 2017-Nov-20 09:54 UTC.
Position N 37°16' E 025°17'.

Length 274 m; draft 10 m.

Type: Ship (hazmat cat B). MMSI: 605106030.

Date/timePositionNaut miles runAvg speedWind from/ knotsBaromVisibWave heightAir tempDewpointWater temp
2017-Nov-20 00:30N 37°16' E 025°17'714.1
2017-Nov-20 00:00N 37°17' E 025°26'714.0
2017-Nov-19 23:30N 37°19' E 025°35'714.5
2017-Nov-19 23:00N 37°23' E 025°42'713.4
2017-Nov-19 22:30N 37°30' E 025°43'714.1
2017-Nov-19 22:00N 37°37' E 025°44'713.9
2017-Nov-19 21:30N 37°44' E 025°44'9 0.2
2017-Nov-17 22:21N 37°52' E 025°39'412.5
2017-Nov-17 22:00N 37°48' E 025°39'3 5.1
2017-Nov-17 21:30N 37°47' E 025°42'2 1.1
2017-Nov-17 19:21N 37°49' E 025°43'1212.1
2017-Nov-17 18:22N 37°37' E 025°43'812.9
2017-Nov-17 17:43N 37°29' E 025°43'312.3
2017-Nov-17 17:30N 37°26' E 025°43'811.2
2017-Nov-17 16:48N 37°20' E 025°37'411.6
2017-Nov-17 16:28N 37°18' E 025°33'612.3
2017-Nov-17 16:00N 37°17' E 025°26'612.6
2017-Nov-17 15:30N 37°16' E 025°18'612.6
2017-Nov-17 15:00N 37°16' E 025°10'612.3
2017-Nov-17 14:30N 37°15' E 025°02'612.3
2017-Nov-17 14:00N 37°12' E 024°55'48813.1
2017-Nov-16 00:38N 36°18' E 014°50'214.3
2017-Nov-16 00:29N 36°19' E 014°47'814.3
2017-Nov-15 23:57N 36°21' E 014°38'714.1
2017-Nov-15 23:27N 36°23' E 014°30'714.2
2017-Nov-15 23:00N 36°25' E 014°22'714.1
2017-Nov-15 22:30N 36°27' E 014°14'714.3
2017-Nov-15 22:00N 36°29' E 014°05'1114.4
2017-Nov-15 21:14N 36°32' E 013°52'414.3
2017-Nov-15 20:58N 36°33' E 013°48'  

Dump ship's entire track history